Conroe, TX

10:26 AM CDT del 16 Settembre 2014 (GMT -0500)
Wroxton Estates | Change Station
CLOSE
Current Station
Stazione meteo personale
Location: Conroe, TX
Altitudine: 210 ft
Stazioni meteo nelle vicinanze

Alt. 210 ft 30.32 °N, 95.49 °W | Updated 9 minutes ago

Parzialmente nuvoloso
Parzialmente nuvoloso
82.0 °F
Sembra 89 °F
N
2.0
Vento Variabile Vento da NE
Gusts 2.0 mph

Oggi
Massima -- | Minima -- °F
--% Possibilità di precip.
Ieri
Massima -- | Minima -- °F
Precip. -- in
7:06 AM 7:25 PM
Ultimo quarto, 45% visible
Pressione 30.08 in
Visibilità 10.0 miglia
Nuvole Nubi sparse 1000 ft
Indice di calore 89 °F
Punto di rugiada 75 °F
Umidità 80%
Piovosità 0.00 in
Spessore del manto nevoso Non disponibile.
Raggi UV 3 fuori da 12
Polline 8.70 fuori da 12
Ozono Buono
PM2.5 Moderato
Flu Activity Non disponibile.
METAR KCXO 161453Z VRB04KT 10SM SCT010 28/24 A3009 RMK AO2 SLP185 T02830244 53006

More Conditions Fewer Conditions

Pressione 30.08 in
Visibilità 10.0 miglia
Nuvole Nubi sparse 1000 ft
Indice di calore 89 °F
Punto di rugiada 75 °F
Umidità 80%
Piovosità 0.00 in
Spessore del manto nevoso Non disponibile.
Raggi UV 3 fuori da 12
Polline 8.70 fuori da 12
Ozono Buono
PM2.5 Moderato
Flu Activity Non disponibile.
METAR KCXO 161453Z VRB04KT 10SM SCT010 28/24 A3009 RMK AO2 SLP185 T02830244 53006

More Conditions Fewer Conditions

10-Day Weather Forecast

Almanac

Astronomia

Sep. 16, 2014 Alba Tramonto
Ora attuale 07:06 CDT 19:25 CDT
Crepuscolo civile 06:42 CDT 19:49 CDT
Crepuscolo nautico 06:14 CDT 20:17 CDT
Crepuscolo astronomico 05:46 CDT 20:46 CDT
Luna 00:35 CDT 14:32 CDT
Estensione della luce visibile 13h 07m
Lunghezza del giorno
12h 19m
Tomorrow will be 1m 48s shorter.
Ultimo quarto, 45% of the Moon is Illuminated
Oggi
Ultimo quarto
Set 24
Nuovo
Ott 1
Primo quarto
Ott 8
Luna piena
Ott 15
Ultimo quarto

Gli estremi di oggi

State Highs State Lows

Community

WunderPhotos

Upload Photos

1,753,807 foto caricate!

Nearby

Qualità dell'aria

  Qualità dell'aria Indice AQ Inquinante
Ieri Moderato
PM2.5
Ieri Buono
OZONE
Attuale Moderato
PM2.5
Attuale Buono
OZONE
Martedì Buono
OZONE
Martedì Buono
PM10
Mercoledì Buono
OZONE
Mercoledì Buono
PM10
Giovedì Buono
OZONE
Giovedì Buono
PM10
Venerdì Buono
OZONE
Venerdì Buono
PM10

Profondità neve

Stazione Profondità Altitudine
Non sono state evidenziate nuove nevicate

Attività sismica

Città  Distanza Mag. Data & Ora
Non sono state riportate attività sismiche nelle vicinanze.
Minimo Magnitudo Mostrato è 2.5.

Temperature delle acque costiere

Località Temperatura
Nessun dato dalle stazioni

Stazioni meteo nelle vicinanze